sensor_id;sensor_type;location;lat;lon;timestamp;temperature;humidity
4749;DHT22;2388;53.582;9.962;2023-12-04T00:00:19;0.60;99.90
4749;DHT22;2388;53.582;9.962;2023-12-04T00:02:44;0.50;99.90
4749;DHT22;2388;53.582;9.962;2023-12-04T00:05:10;0.50;99.90
4749;DHT22;2388;53.582;9.962;2023-12-04T00:07:35;0.50;99.90
4749;DHT22;2388;53.582;9.962;2023-12-04T00:10:01;0.50;99.90
4749;DHT22;2388;53.582;9.962;2023-12-04T00:12:26;0.40;99.90
4749;DHT22;2388;53.582;9.962;2023-12-04T00:14:52;0.40;99.90
4749;DHT22;2388;53.582;9.962;2023-12-04T00:17:17;0.40;99.90
4749;DHT22;2388;53.582;9.962;2023-12-04T00:19:43;0.40;99.90
4749;DHT22;2388;53.582;9.962;2023-12-04T00:22:09;0.30;99.90
4749;DHT22;2388;53.582;9.962;2023-12-04T00:24:35;0.30;99.90
4749;DHT22;2388;53.582;9.962;2023-12-04T00:27:00;0.30;99.90
4749;DHT22;2388;53.582;9.962;2023-12-04T00:29:25;0.30;99.90
4749;DHT22;2388;53.582;9.962;2023-12-04T00:31:51;0.30;99.90
4749;DHT22;2388;53.582;9.962;2023-12-04T00:34:16;0.20;99.90
4749;DHT22;2388;53.582;9.962;2023-12-04T00:36:42;0.10;99.90
4749;DHT22;2388;53.582;9.962;2023-12-04T00:39:07;0.10;99.90
4749;DHT22;2388;53.582;9.962;2023-12-04T00:41:33;0.10;99.90
4749;DHT22;2388;53.582;9.962;2023-12-04T00:43:59;0.10;99.90
4749;DHT22;2388;53.582;9.962;2023-12-04T00:46:24;0.10;99.90
4749;DHT22;2388;53.582;9.962;2023-12-04T00:48:51;0.20;99.90
4749;DHT22;2388;53.582;9.962;2023-12-04T00:51:16;0.10;99.90
4749;DHT22;2388;53.582;9.962;2023-12-04T00:53:42;0.00;99.90
4749;DHT22;2388;53.582;9.962;2023-12-04T00:56:08;0.00;99.90
4749;DHT22;2388;53.582;9.962;2023-12-04T00:58:33;0.00;99.90
4749;DHT22;2388;53.582;9.962;2023-12-04T01:00:59;0.10;99.90
4749;DHT22;2388;53.582;9.962;2023-12-04T01:03:24;0.10;99.90
4749;DHT22;2388;53.582;9.962;2023-12-04T01:05:51;0.00;99.90
4749;DHT22;2388;53.582;9.962;2023-12-04T01:08:17;0.00;99.90
4749;DHT22;2388;53.582;9.962;2023-12-04T01:10:43;0.00;99.90
4749;DHT22;2388;53.582;9.962;2023-12-04T01:13:08;-0.10;99.90
4749;DHT22;2388;53.582;9.962;2023-12-04T01:15:34;0.00;99.90
4749;DHT22;2388;53.582;9.962;2023-12-04T01:17:59;-0.10;99.90
4749;DHT22;2388;53.582;9.962;2023-12-04T01:20:26;-0.10;99.90
4749;DHT22;2388;53.582;9.962;2023-12-04T01:22:51;-0.10;99.90
4749;DHT22;2388;53.582;9.962;2023-12-04T01:25:17;-0.10;99.90
4749;DHT22;2388;53.582;9.962;2023-12-04T01:27:43;-0.20;99.90
4749;DHT22;2388;53.582;9.962;2023-12-04T01:30:09;-0.20;99.90
4749;DHT22;2388;53.582;9.962;2023-12-04T01:32:35;-0.20;99.90
4749;DHT22;2388;53.582;9.962;2023-12-04T01:35:02;-0.20;99.90
4749;DHT22;2388;53.582;9.962;2023-12-04T01:37:27;-0.20;99.90
4749;DHT22;2388;53.582;9.962;2023-12-04T01:39:53;-0.20;99.90
4749;DHT22;2388;53.582;9.962;2023-12-04T01:42:18;-0.10;99.90
4749;DHT22;2388;53.582;9.962;2023-12-04T01:44:44;-0.20;99.90
4749;DHT22;2388;53.582;9.962;2023-12-04T01:47:10;-0.20;99.90
4749;DHT22;2388;53.582;9.962;2023-12-04T01:49:36;-0.20;99.90
4749;DHT22;2388;53.582;9.962;2023-12-04T01:52:02;-0.20;99.90
4749;DHT22;2388;53.582;9.962;2023-12-04T01:54:29;-0.20;99.90
4749;DHT22;2388;53.582;9.962;2023-12-04T01:56:55;-0.30;99.90
4749;DHT22;2388;53.582;9.962;2023-12-04T01:59:21;-0.30;99.90
4749;DHT22;2388;53.582;9.962;2023-12-04T02:01:47;-0.30;99.90
4749;DHT22;2388;53.582;9.962;2023-12-04T02:04:13;-0.30;99.90
4749;DHT22;2388;53.582;9.962;2023-12-04T02:06:40;-0.40;99.90
4749;DHT22;2388;53.582;9.962;2023-12-04T02:09:06;-0.40;99.90
4749;DHT22;2388;53.582;9.962;2023-12-04T02:11:32;-0.50;99.90
4749;DHT22;2388;53.582;9.962;2023-12-04T02:13:57;-0.50;99.90
4749;DHT22;2388;53.582;9.962;2023-12-04T02:16:25;-0.50;99.90
4749;DHT22;2388;53.582;9.962;2023-12-04T02:18:52;-0.50;99.90
4749;DHT22;2388;53.582;9.962;2023-12-04T02:21:18;-0.40;99.90
4749;DHT22;2388;53.582;9.962;2023-12-04T02:23:48;-0.50;99.90
4749;DHT22;2388;53.582;9.962;2023-12-04T02:26:16;-0.50;99.90
4749;DHT22;2388;53.582;9.962;2023-12-04T02:28:47;-0.50;99.90
4749;DHT22;2388;53.582;9.962;2023-12-04T02:31:16;-0.50;99.90
4749;DHT22;2388;53.582;9.962;2023-12-04T02:33:43;-0.50;99.90
4749;DHT22;2388;53.582;9.962;2023-12-04T02:36:10;-0.50;99.90
4749;DHT22;2388;53.582;9.962;2023-12-04T02:38:37;-0.40;99.90
4749;DHT22;2388;53.582;9.962;2023-12-04T02:41:03;-0.50;99.90
4749;DHT22;2388;53.582;9.962;2023-12-04T02:43:28;-0.50;99.90
4749;DHT22;2388;53.582;9.962;2023-12-04T02:45:54;-0.60;99.90
4749;DHT22;2388;53.582;9.962;2023-12-04T02:48:19;-0.50;99.90
4749;DHT22;2388;53.582;9.962;2023-12-04T02:50:45;-0.60;99.90
4749;DHT22;2388;53.582;9.962;2023-12-04T02:53:10;-0.60;99.90
4749;DHT22;2388;53.582;9.962;2023-12-04T02:55:36;-0.60;99.90
4749;DHT22;2388;53.582;9.962;2023-12-04T02:58:01;-0.60;99.90
4749;DHT22;2388;53.582;9.962;2023-12-04T03:00:27;-0.60;99.90
4749;DHT22;2388;53.582;9.962;2023-12-04T03:02:52;-0.60;99.90
4749;DHT22;2388;53.582;9.962;2023-12-04T03:05:19;-0.50;99.90
4749;DHT22;2388;53.582;9.962;2023-12-04T03:07:44;-0.60;99.90
4749;DHT22;2388;53.582;9.962;2023-12-04T03:10:11;-0.60;99.90
4749;DHT22;2388;53.582;9.962;2023-12-04T03:12:36;-0.70;99.90
4749;DHT22;2388;53.582;9.962;2023-12-04T03:15:02;-0.60;99.90
4749;DHT22;2388;53.582;9.962;2023-12-04T03:17:28;-0.60;99.90
4749;DHT22;2388;53.582;9.962;2023-12-04T03:19:53;-0.60;99.90
4749;DHT22;2388;53.582;9.962;2023-12-04T03:22:19;-0.60;99.90
4749;DHT22;2388;53.582;9.962;2023-12-04T03:24:44;-0.60;99.90
4749;DHT22;2388;53.582;9.962;2023-12-04T03:27:10;-0.60;99.90
4749;DHT22;2388;53.582;9.962;2023-12-04T03:29:36;-0.60;99.90
4749;DHT22;2388;53.582;9.962;2023-12-04T03:32:01;-0.60;99.90
4749;DHT22;2388;53.582;9.962;2023-12-04T03:34:27;-0.60;99.90
4749;DHT22;2388;53.582;9.962;2023-12-04T03:36:52;-0.60;99.90
4749;DHT22;2388;53.582;9.962;2023-12-04T03:39:18;-0.60;99.90
4749;DHT22;2388;53.582;9.962;2023-12-04T03:41:43;-0.60;99.90
4749;DHT22;2388;53.582;9.962;2023-12-04T03:44:10;-0.60;99.90
4749;DHT22;2388;53.582;9.962;2023-12-04T03:46:35;-0.50;99.90
4749;DHT22;2388;53.582;9.962;2023-12-04T03:49:01;-0.60;99.90
4749;DHT22;2388;53.582;9.962;2023-12-04T03:51:26;-0.60;99.90
4749;DHT22;2388;53.582;9.962;2023-12-04T03:53:52;-0.50;99.90
4749;DHT22;2388;53.582;9.962;2023-12-04T03:56:17;-0.60;99.90
4749;DHT22;2388;53.582;9.962;2023-12-04T03:58:43;-0.60;99.90
4749;DHT22;2388;53.582;9.962;2023-12-04T04:01:08;-0.50;99.90
4749;DHT22;2388;53.582;9.962;2023-12-04T04:03:34;-0.60;99.90
4749;DHT22;2388;53.582;9.962;2023-12-04T04:05:59;-0.60;99.90
4749;DHT22;2388;53.582;9.962;2023-12-04T04:08:25;-0.50;99.90
4749;DHT22;2388;53.582;9.962;2023-12-04T04:10:50;-0.50;99.90
4749;DHT22;2388;53.582;9.962;2023-12-04T04:13:15;-0.50;99.90
4749;DHT22;2388;53.582;9.962;2023-12-04T04:15:41;-0.50;99.90
4749;DHT22;2388;53.582;9.962;2023-12-04T04:18:07;-0.50;99.90
4749;DHT22;2388;53.582;9.962;2023-12-04T04:20:32;-0.40;99.90
4749;DHT22;2388;53.582;9.962;2023-12-04T04:22:58;-0.50;99.90
4749;DHT22;2388;53.582;9.962;2023-12-04T04:25:23;-0.50;99.90
4749;DHT22;2388;53.582;9.962;2023-12-04T04:27:49;-0.50;99.90
4749;DHT22;2388;53.582;9.962;2023-12-04T04:30:14;-0.40;99.90
4749;DHT22;2388;53.582;9.962;2023-12-04T04:32:41;-0.40;99.90
4749;DHT22;2388;53.582;9.962;2023-12-04T04:35:07;-0.30;99.90
4749;DHT22;2388;53.582;9.962;2023-12-04T04:37:33;-0.30;99.90
4749;DHT22;2388;53.582;9.962;2023-12-04T04:39:58;-0.30;99.90
4749;DHT22;2388;53.582;9.962;2023-12-04T04:42:24;-0.40;99.90
4749;DHT22;2388;53.582;9.962;2023-12-04T04:44:49;-0.40;99.90
4749;DHT22;2388;53.582;9.962;2023-12-04T04:47:14;-0.40;99.90
4749;DHT22;2388;53.582;9.962;2023-12-04T04:49:40;-0.40;99.90
4749;DHT22;2388;53.582;9.962;2023-12-04T04:52:07;-0.50;99.90
4749;DHT22;2388;53.582;9.962;2023-12-04T04:54:32;-0.60;99.90
4749;DHT22;2388;53.582;9.962;2023-12-04T04:56:58;-0.50;99.90
4749;DHT22;2388;53.582;9.962;2023-12-04T04:59:23;-0.60;99.90
4749;DHT22;2388;53.582;9.962;2023-12-04T05:01:49;-0.50;99.90
4749;DHT22;2388;53.582;9.962;2023-12-04T05:04:14;-0.50;99.90
4749;DHT22;2388;53.582;9.962;2023-12-04T05:06:40;-0.50;99.90
4749;DHT22;2388;53.582;9.962;2023-12-04T05:09:05;-0.50;99.90
4749;DHT22;2388;53.582;9.962;2023-12-04T05:11:31;-0.50;99.90
4749;DHT22;2388;53.582;9.962;2023-12-04T05:13:56;-0.50;99.90
4749;DHT22;2388;53.582;9.962;2023-12-04T05:16:22;-0.40;99.90
4749;DHT22;2388;53.582;9.962;2023-12-04T05:18:47;-0.40;99.90
4749;DHT22;2388;53.582;9.962;2023-12-04T05:21:13;-0.40;99.90
4749;DHT22;2388;53.582;9.962;2023-12-04T05:23:39;-0.40;99.90
4749;DHT22;2388;53.582;9.962;2023-12-04T05:26:06;-0.40;99.90
4749;DHT22;2388;53.582;9.962;2023-12-04T05:28:31;-0.40;99.90
4749;DHT22;2388;53.582;9.962;2023-12-04T05:30:57;-0.40;99.90
4749;DHT22;2388;53.582;9.962;2023-12-04T05:33:23;-0.40;99.90
4749;DHT22;2388;53.582;9.962;2023-12-04T05:35:48;-0.50;99.90
4749;DHT22;2388;53.582;9.962;2023-12-04T05:38:16;-0.40;99.90
4749;DHT22;2388;53.582;9.962;2023-12-04T05:40:41;-0.40;99.90
4749;DHT22;2388;53.582;9.962;2023-12-04T05:43:07;-0.30;99.90
4749;DHT22;2388;53.582;9.962;2023-12-04T05:45:32;-0.30;99.90
4749;DHT22;2388;53.582;9.962;2023-12-04T05:47:58;-0.30;99.90
4749;DHT22;2388;53.582;9.962;2023-12-04T05:50:24;-0.30;99.90
4749;DHT22;2388;53.582;9.962;2023-12-04T05:52:50;-0.30;99.90
4749;DHT22;2388;53.582;9.962;2023-12-04T05:55:16;-0.30;99.90
4749;DHT22;2388;53.582;9.962;2023-12-04T05:57:41;-0.30;99.90
4749;DHT22;2388;53.582;9.962;2023-12-04T06:00:07;-0.30;99.90
4749;DHT22;2388;53.582;9.962;2023-12-04T06:02:39;-0.30;99.90
4749;DHT22;2388;53.582;9.962;2023-12-04T06:05:06;-0.30;99.90
4749;DHT22;2388;53.582;9.962;2023-12-04T06:07:31;-0.30;99.90
4749;DHT22;2388;53.582;9.962;2023-12-04T06:09:57;-0.30;99.90
4749;DHT22;2388;53.582;9.962;2023-12-04T06:12:22;-0.30;99.90
4749;DHT22;2388;53.582;9.962;2023-12-04T06:14:47;-0.40;99.90
4749;DHT22;2388;53.582;9.962;2023-12-04T06:17:13;-0.40;99.90
4749;DHT22;2388;53.582;9.962;2023-12-04T06:19:39;-0.40;99.90
4749;DHT22;2388;53.582;9.962;2023-12-04T06:22:05;-0.50;99.90
4749;DHT22;2388;53.582;9.962;2023-12-04T06:24:30;-0.50;99.90
4749;DHT22;2388;53.582;9.962;2023-12-04T06:26:56;-0.60;99.90
4749;DHT22;2388;53.582;9.962;2023-12-04T06:29:23;-0.60;99.90
4749;DHT22;2388;53.582;9.962;2023-12-04T06:31:49;-0.60;99.90
4749;DHT22;2388;53.582;9.962;2023-12-04T06:34:14;-0.70;99.90
4749;DHT22;2388;53.582;9.962;2023-12-04T06:36:40;-0.70;99.90
4749;DHT22;2388;53.582;9.962;2023-12-04T06:39:10;-0.70;99.90
4749;DHT22;2388;53.582;9.962;2023-12-04T06:41:37;-0.70;99.90
4749;DHT22;2388;53.582;9.962;2023-12-04T06:44:03;-0.70;99.90
4749;DHT22;2388;53.582;9.962;2023-12-04T06:46:30;-0.70;99.90
4749;DHT22;2388;53.582;9.962;2023-12-04T06:48:59;-0.70;99.90
4749;DHT22;2388;53.582;9.962;2023-12-04T06:51:24;-0.70;99.90
4749;DHT22;2388;53.582;9.962;2023-12-04T06:53:50;-0.70;99.90
4749;DHT22;2388;53.582;9.962;2023-12-04T06:56:15;-0.70;99.90
4749;DHT22;2388;53.582;9.962;2023-12-04T06:58:41;-0.80;99.90
4749;DHT22;2388;53.582;9.962;2023-12-04T07:01:07;-0.70;99.90
4749;DHT22;2388;53.582;9.962;2023-12-04T07:03:32;-0.70;99.90
4749;DHT22;2388;53.582;9.962;2023-12-04T07:05:58;-0.70;99.90
4749;DHT22;2388;53.582;9.962;2023-12-04T07:08:24;-0.70;99.90
4749;DHT22;2388;53.582;9.962;2023-12-04T07:10:50;-0.70;99.90
4749;DHT22;2388;53.582;9.962;2023-12-04T07:13:16;-0.70;99.90
4749;DHT22;2388;53.582;9.962;2023-12-04T07:15:42;-0.70;99.90
4749;DHT22;2388;53.582;9.962;2023-12-04T07:18:07;-0.80;99.90
4749;DHT22;2388;53.582;9.962;2023-12-04T07:20:33;-0.80;99.90
4749;DHT22;2388;53.582;9.962;2023-12-04T07:22:59;-0.80;99.90
4749;DHT22;2388;53.582;9.962;2023-12-04T07:25:24;-0.80;99.90
4749;DHT22;2388;53.582;9.962;2023-12-04T07:27:50;-0.80;99.90
4749;DHT22;2388;53.582;9.962;2023-12-04T07:30:15;-0.80;99.90
4749;DHT22;2388;53.582;9.962;2023-12-04T07:32:41;-0.80;99.90
4749;DHT22;2388;53.582;9.962;2023-12-04T07:35:07;-0.80;99.90
4749;DHT22;2388;53.582;9.962;2023-12-04T07:37:32;-0.70;99.90
4749;DHT22;2388;53.582;9.962;2023-12-04T07:39:58;-0.70;99.90
4749;DHT22;2388;53.582;9.962;2023-12-04T07:42:24;-0.80;99.90
4749;DHT22;2388;53.582;9.962;2023-12-04T07:44:50;-0.80;99.90
4749;DHT22;2388;53.582;9.962;2023-12-04T07:47:15;-0.70;99.90
4749;DHT22;2388;53.582;9.962;2023-12-04T07:49:41;-0.40;99.90
4749;DHT22;2388;53.582;9.962;2023-12-04T07:52:07;-0.50;99.90
4749;DHT22;2388;53.582;9.962;2023-12-04T07:54:33;-0.60;99.90
4749;DHT22;2388;53.582;9.962;2023-12-04T07:56:58;-0.60;99.90
4749;DHT22;2388;53.582;9.962;2023-12-04T07:59:24;-0.70;99.90
4749;DHT22;2388;53.582;9.962;2023-12-04T08:01:49;-0.70;99.90
4749;DHT22;2388;53.582;9.962;2023-12-04T08:04:15;-0.70;99.90
4749;DHT22;2388;53.582;9.962;2023-12-04T08:06:41;-0.60;99.90
4749;DHT22;2388;53.582;9.962;2023-12-04T08:09:06;-0.60;99.90
4749;DHT22;2388;53.582;9.962;2023-12-04T08:11:35;-0.60;99.90
4749;DHT22;2388;53.582;9.962;2023-12-04T08:14:01;-0.60;99.90
4749;DHT22;2388;53.582;9.962;2023-12-04T08:16:27;-0.50;99.90
4749;DHT22;2388;53.582;9.962;2023-12-04T08:18:54;-0.50;99.90
4749;DHT22;2388;53.582;9.962;2023-12-04T08:21:20;-0.50;99.90
4749;DHT22;2388;53.582;9.962;2023-12-04T08:23:45;-0.50;99.90
4749;DHT22;2388;53.582;9.962;2023-12-04T08:26:11;-0.50;99.90
4749;DHT22;2388;53.582;9.962;2023-12-04T08:28:37;-0.50;99.90
4749;DHT22;2388;53.582;9.962;2023-12-04T08:31:09;-0.50;99.90
4749;DHT22;2388;53.582;9.962;2023-12-04T08:33:36;-0.50;99.90
4749;DHT22;2388;53.582;9.962;2023-12-04T08:36:01;-0.50;99.90
4749;DHT22;2388;53.582;9.962;2023-12-04T08:38:27;-0.40;99.90
4749;DHT22;2388;53.582;9.962;2023-12-04T08:40:53;-0.40;99.90
4749;DHT22;2388;53.582;9.962;2023-12-04T08:43:19;-0.40;99.90
4749;DHT22;2388;53.582;9.962;2023-12-04T08:45:45;-0.40;99.90
4749;DHT22;2388;53.582;9.962;2023-12-04T08:48:11;-0.40;99.90
4749;DHT22;2388;53.582;9.962;2023-12-04T08:50:36;-0.40;99.90
4749;DHT22;2388;53.582;9.962;2023-12-04T08:53:05;-0.40;99.90
4749;DHT22;2388;53.582;9.962;2023-12-04T08:55:30;-0.50;99.90
4749;DHT22;2388;53.582;9.962;2023-12-04T08:57:56;-0.50;99.90
4749;DHT22;2388;53.582;9.962;2023-12-04T09:00:22;-0.50;99.90
4749;DHT22;2388;53.582;9.962;2023-12-04T09:02:48;-0.50;99.90
4749;DHT22;2388;53.582;9.962;2023-12-04T09:05:14;-0.50;99.90
4749;DHT22;2388;53.582;9.962;2023-12-04T09:07:39;-0.50;99.90
4749;DHT22;2388;53.582;9.962;2023-12-04T09:10:05;-0.50;99.90
4749;DHT22;2388;53.582;9.962;2023-12-04T09:12:31;-0.50;99.90
4749;DHT22;2388;53.582;9.962;2023-12-04T09:14:57;-0.40;99.90
4749;DHT22;2388;53.582;9.962;2023-12-04T09:17:22;-0.40;99.90
4749;DHT22;2388;53.582;9.962;2023-12-04T09:19:48;-0.40;99.90
4749;DHT22;2388;53.582;9.962;2023-12-04T09:22:14;-0.40;99.90
4749;DHT22;2388;53.582;9.962;2023-12-04T09:24:39;-0.40;99.90
4749;DHT22;2388;53.582;9.962;2023-12-04T09:27:05;-0.40;99.90
4749;DHT22;2388;53.582;9.962;2023-12-04T09:29:33;-0.40;99.90
4749;DHT22;2388;53.582;9.962;2023-12-04T09:31:59;-0.40;99.90
4749;DHT22;2388;53.582;9.962;2023-12-04T09:34:24;-0.40;99.90
4749;DHT22;2388;53.582;9.962;2023-12-04T09:36:50;-0.40;99.90
4749;DHT22;2388;53.582;9.962;2023-12-04T09:39:15;-0.40;99.90
4749;DHT22;2388;53.582;9.962;2023-12-04T09:41:42;-0.40;99.90
4749;DHT22;2388;53.582;9.962;2023-12-04T09:44:09;-0.40;99.90
4749;DHT22;2388;53.582;9.962;2023-12-04T09:46:35;-0.40;99.90
4749;DHT22;2388;53.582;9.962;2023-12-04T09:49:00;-0.40;99.90
4749;DHT22;2388;53.582;9.962;2023-12-04T09:51:27;-0.30;99.90
4749;DHT22;2388;53.582;9.962;2023-12-04T09:53:54;-0.30;99.90
4749;DHT22;2388;53.582;9.962;2023-12-04T09:56:22;-0.30;99.90
4749;DHT22;2388;53.582;9.962;2023-12-04T09:58:57;-0.30;99.90
4749;DHT22;2388;53.582;9.962;2023-12-04T10:01:23;-0.30;99.90
4749;DHT22;2388;53.582;9.962;2023-12-04T10:03:50;-0.20;99.90
4749;DHT22;2388;53.582;9.962;2023-12-04T10:06:16;-0.20;99.90
4749;DHT22;2388;53.582;9.962;2023-12-04T10:08:44;-0.10;99.90
4749;DHT22;2388;53.582;9.962;2023-12-04T10:11:10;-0.20;99.90
4749;DHT22;2388;53.582;9.962;2023-12-04T10:13:36;-0.20;99.90
4749;DHT22;2388;53.582;9.962;2023-12-04T10:16:02;-0.10;99.90
4749;DHT22;2388;53.582;9.962;2023-12-04T10:18:29;-0.10;99.90
4749;DHT22;2388;53.582;9.962;2023-12-04T10:20:59;-0.20;99.90
4749;DHT22;2388;53.582;9.962;2023-12-04T10:23:37;-0.20;99.90
4749;DHT22;2388;53.582;9.962;2023-12-04T10:26:03;-0.20;99.90
4749;DHT22;2388;53.582;9.962;2023-12-04T10:28:29;-0.10;99.90
4749;DHT22;2388;53.582;9.962;2023-12-04T10:30:55;-0.10;99.90
4749;DHT22;2388;53.582;9.962;2023-12-04T10:33:20;-0.10;99.90
4749;DHT22;2388;53.582;9.962;2023-12-04T10:35:46;-0.10;99.90
4749;DHT22;2388;53.582;9.962;2023-12-04T10:38:12;0.00;99.90
4749;DHT22;2388;53.582;9.962;2023-12-04T10:40:39;0.00;99.90
4749;DHT22;2388;53.582;9.962;2023-12-04T10:43:17;0.00;99.90
4749;DHT22;2388;53.582;9.962;2023-12-04T10:45:44;0.00;99.90
4749;DHT22;2388;53.582;9.962;2023-12-04T10:48:14;0.00;99.90
4749;DHT22;2388;53.582;9.962;2023-12-04T10:50:42;-0.10;99.90
4749;DHT22;2388;53.582;9.962;2023-12-04T10:53:09;0.00;99.90
4749;DHT22;2388;53.582;9.962;2023-12-04T10:55:35;0.00;99.90
4749;DHT22;2388;53.582;9.962;2023-12-04T10:58:12;0.00;99.90
4749;DHT22;2388;53.582;9.962;2023-12-04T11:00:47;0.00;99.90
4749;DHT22;2388;53.582;9.962;2023-12-04T11:03:21;0.00;99.90
4749;DHT22;2388;53.582;9.962;2023-12-04T11:05:56;0.00;99.90
4749;DHT22;2388;53.582;9.962;2023-12-04T11:08:23;0.00;99.90
4749;DHT22;2388;53.582;9.962;2023-12-04T11:10:57;0.00;99.90
4749;DHT22;2388;53.582;9.962;2023-12-04T11:13:28;0.00;99.90
4749;DHT22;2388;53.582;9.962;2023-12-04T11:16:02;0.00;99.90
4749;DHT22;2388;53.582;9.962;2023-12-04T11:18:36;0.00;99.90
4749;DHT22;2388;53.582;9.962;2023-12-04T11:21:10;0.10;99.90
4749;DHT22;2388;53.582;9.962;2023-12-04T11:23:37;0.10;99.90
4749;DHT22;2388;53.582;9.962;2023-12-04T11:26:04;0.10;99.90
4749;DHT22;2388;53.582;9.962;2023-12-04T11:28:31;0.10;99.90
4749;DHT22;2388;53.582;9.962;2023-12-04T11:30:59;0.10;99.90
4749;DHT22;2388;53.582;9.962;2023-12-04T11:33:24;0.10;99.90
4749;DHT22;2388;53.582;9.962;2023-12-04T11:35:50;0.10;99.90
4749;DHT22;2388;53.582;9.962;2023-12-04T11:38:19;0.10;99.90
4749;DHT22;2388;53.582;9.962;2023-12-04T11:40:48;0.10;99.90
4749;DHT22;2388;53.582;9.962;2023-12-04T11:43:21;0.10;99.90
4749;DHT22;2388;53.582;9.962;2023-12-04T11:45:48;0.20;99.90
4749;DHT22;2388;53.582;9.962;2023-12-04T11:48:14;0.20;99.90
4749;DHT22;2388;53.582;9.962;2023-12-04T11:50:43;0.30;99.90
4749;DHT22;2388;53.582;9.962;2023-12-04T11:53:10;0.30;99.90
4749;DHT22;2388;53.582;9.962;2023-12-04T11:55:39;0.30;99.90
4749;DHT22;2388;53.582;9.962;2023-12-04T11:58:11;0.40;99.90
4749;DHT22;2388;53.582;9.962;2023-12-04T12:00:37;0.30;99.90
4749;DHT22;2388;53.582;9.962;2023-12-04T12:03:07;0.30;99.90
4749;DHT22;2388;53.582;9.962;2023-12-04T12:05:35;0.30;99.90
4749;DHT22;2388;53.582;9.962;2023-12-04T12:08:05;0.30;99.90
4749;DHT22;2388;53.582;9.962;2023-12-04T12:10:31;0.30;99.90
4749;DHT22;2388;53.582;9.962;2023-12-04T12:12:58;0.30;99.90
4749;DHT22;2388;53.582;9.962;2023-12-04T12:15:23;0.30;99.90
4749;DHT22;2388;53.582;9.962;2023-12-04T12:17:49;0.40;99.90
4749;DHT22;2388;53.582;9.962;2023-12-04T12:20:16;0.30;99.90
4749;DHT22;2388;53.582;9.962;2023-12-04T12:22:41;0.30;99.90
4749;DHT22;2388;53.582;9.962;2023-12-04T12:25:10;0.30;99.90
4749;DHT22;2388;53.582;9.962;2023-12-04T12:27:36;0.30;99.90
4749;DHT22;2388;53.582;9.962;2023-12-04T12:30:02;0.30;99.90
4749;DHT22;2388;53.582;9.962;2023-12-04T12:32:30;0.20;99.90
4749;DHT22;2388;53.582;9.962;2023-12-04T12:34:56;0.20;99.90
4749;DHT22;2388;53.582;9.962;2023-12-04T12:37:21;0.20;99.90
4749;DHT22;2388;53.582;9.962;2023-12-04T12:39:47;0.20;99.90
4749;DHT22;2388;53.582;9.962;2023-12-04T12:42:28;0.30;99.90
4749;DHT22;2388;53.582;9.962;2023-12-04T12:44:55;0.30;99.90
4749;DHT22;2388;53.582;9.962;2023-12-04T12:47:21;0.30;99.90
4749;DHT22;2388;53.582;9.962;2023-12-04T12:49:47;0.30;99.90
4749;DHT22;2388;53.582;9.962;2023-12-04T12:52:14;0.40;99.90
4749;DHT22;2388;53.582;9.962;2023-12-04T12:54:41;0.40;99.90
4749;DHT22;2388;53.582;9.962;2023-12-04T12:57:07;0.40;99.90
4749;DHT22;2388;53.582;9.962;2023-12-04T12:59:33;0.40;99.90
4749;DHT22;2388;53.582;9.962;2023-12-04T13:02:00;0.40;99.90
4749;DHT22;2388;53.582;9.962;2023-12-04T13:04:26;0.40;99.90
4749;DHT22;2388;53.582;9.962;2023-12-04T13:06:52;0.50;99.90
4749;DHT22;2388;53.582;9.962;2023-12-04T13:09:19;0.40;99.90
4749;DHT22;2388;53.582;9.962;2023-12-04T13:11:45;0.50;99.90
4749;DHT22;2388;53.582;9.962;2023-12-04T13:14:11;0.50;99.90
4749;DHT22;2388;53.582;9.962;2023-12-04T13:16:36;0.40;99.90
4749;DHT22;2388;53.582;9.962;2023-12-04T13:19:02;0.50;99.90
4749;DHT22;2388;53.582;9.962;2023-12-04T13:21:27;0.40;99.90
4749;DHT22;2388;53.582;9.962;2023-12-04T13:23:53;0.40;99.90
4749;DHT22;2388;53.582;9.962;2023-12-04T13:26:19;0.40;99.90
4749;DHT22;2388;53.582;9.962;2023-12-04T13:28:45;0.40;99.90
4749;DHT22;2388;53.582;9.962;2023-12-04T13:31:12;0.50;99.90
4749;DHT22;2388;53.582;9.962;2023-12-04T13:33:38;0.50;99.90
4749;DHT22;2388;53.582;9.962;2023-12-04T13:36:04;0.60;99.90
4749;DHT22;2388;53.582;9.962;2023-12-04T13:38:29;0.60;99.90
4749;DHT22;2388;53.582;9.962;2023-12-04T13:40:55;0.60;99.90
4749;DHT22;2388;53.582;9.962;2023-12-04T13:43:44;0.70;99.90
4749;DHT22;2388;53.582;9.962;2023-12-04T13:46:15;0.70;99.90
4749;DHT22;2388;53.582;9.962;2023-12-04T13:48:41;0.80;99.90
4749;DHT22;2388;53.582;9.962;2023-12-04T13:51:09;0.80;99.90
4749;DHT22;2388;53.582;9.962;2023-12-04T13:53:35;0.70;99.90
4749;DHT22;2388;53.582;9.962;2023-12-04T13:56:01;0.70;99.90
4749;DHT22;2388;53.582;9.962;2023-12-04T13:58:26;0.70;99.90
4749;DHT22;2388;53.582;9.962;2023-12-04T14:01:04;0.60;99.90
4749;DHT22;2388;53.582;9.962;2023-12-04T14:03:42;0.70;99.90
4749;DHT22;2388;53.582;9.962;2023-12-04T14:06:08;0.70;99.90
4749;DHT22;2388;53.582;9.962;2023-12-04T14:08:33;0.70;99.90
4749;DHT22;2388;53.582;9.962;2023-12-04T14:10:59;0.70;99.90
4749;DHT22;2388;53.582;9.962;2023-12-04T14:13:24;0.70;99.90
4749;DHT22;2388;53.582;9.962;2023-12-04T14:15:50;0.70;99.90
4749;DHT22;2388;53.582;9.962;2023-12-04T14:18:15;0.70;99.90
4749;DHT22;2388;53.582;9.962;2023-12-04T14:20:41;0.70;99.90
4749;DHT22;2388;53.582;9.962;2023-12-04T14:23:06;0.70;99.90
4749;DHT22;2388;53.582;9.962;2023-12-04T14:25:32;0.80;99.90
4749;DHT22;2388;53.582;9.962;2023-12-04T14:27:57;0.80;99.90
4749;DHT22;2388;53.582;9.962;2023-12-04T14:30:23;1.40;99.90
4749;DHT22;2388;53.582;9.962;2023-12-04T14:32:48;0.80;99.90
4749;DHT22;2388;53.582;9.962;2023-12-04T14:35:14;0.80;99.90
4749;DHT22;2388;53.582;9.962;2023-12-04T14:37:40;0.80;99.90
4749;DHT22;2388;53.582;9.962;2023-12-04T14:40:06;0.90;99.90
4749;DHT22;2388;53.582;9.962;2023-12-04T14:42:31;0.90;99.90
4749;DHT22;2388;53.582;9.962;2023-12-04T14:44:57;0.90;99.90
4749;DHT22;2388;53.582;9.962;2023-12-04T14:47:22;0.80;99.90
4749;DHT22;2388;53.582;9.962;2023-12-04T14:49:48;0.80;99.90
4749;DHT22;2388;53.582;9.962;2023-12-04T14:52:18;0.70;99.90
4749;DHT22;2388;53.582;9.962;2023-12-04T14:54:47;0.70;99.90
4749;DHT22;2388;53.582;9.962;2023-12-04T14:57:38;0.70;99.90
4749;DHT22;2388;53.582;9.962;2023-12-04T15:00:10;0.70;99.90
4749;DHT22;2388;53.582;9.962;2023-12-04T15:02:51;0.70;99.90
4749;DHT22;2388;53.582;9.962;2023-12-04T15:05:28;0.70;99.90
4749;DHT22;2388;53.582;9.962;2023-12-04T15:07:58;0.70;99.90
4749;DHT22;2388;53.582;9.962;2023-12-04T15:10:44;0.70;99.90
4749;DHT22;2388;53.582;9.962;2023-12-04T15:13:29;0.70;99.90
4749;DHT22;2388;53.582;9.962;2023-12-04T15:16:20;0.60;99.90
4749;DHT22;2388;53.582;9.962;2023-12-04T15:18:55;0.70;99.90
4749;DHT22;2388;53.582;9.962;2023-12-04T15:21:21;0.60;99.90
4749;DHT22;2388;53.582;9.962;2023-12-04T15:23:47;0.70;99.90
4749;DHT22;2388;53.582;9.962;2023-12-04T15:26:13;0.70;99.90
4749;DHT22;2388;53.582;9.962;2023-12-04T15:28:38;0.70;99.90
4749;DHT22;2388;53.582;9.962;2023-12-04T15:31:04;0.70;99.90
4749;DHT22;2388;53.582;9.962;2023-12-04T15:33:30;0.70;99.90
4749;DHT22;2388;53.582;9.962;2023-12-04T15:35:56;0.70;99.90
4749;DHT22;2388;53.582;9.962;2023-12-04T15:38:22;0.70;99.90
4749;DHT22;2388;53.582;9.962;2023-12-04T15:40:47;0.80;99.90
4749;DHT22;2388;53.582;9.962;2023-12-04T15:43:13;0.70;99.90
4749;DHT22;2388;53.582;9.962;2023-12-04T15:45:38;0.60;99.90
4749;DHT22;2388;53.582;9.962;2023-12-04T15:48:04;0.60;99.90
4749;DHT22;2388;53.582;9.962;2023-12-04T15:50:31;0.60;99.90
4749;DHT22;2388;53.582;9.962;2023-12-04T15:52:57;0.60;99.90
4749;DHT22;2388;53.582;9.962;2023-12-04T15:55:23;0.60;99.90
4749;DHT22;2388;53.582;9.962;2023-12-04T15:57:52;0.70;99.90
4749;DHT22;2388;53.582;9.962;2023-12-04T16:00:21;0.70;99.90
4749;DHT22;2388;53.582;9.962;2023-12-04T16:02:46;0.70;99.90